GMT,Max TemperatureF,Mean TemperatureF,Min TemperatureF,Max Dew PointF,MeanDew PointF,Min DewpointF,Max Humidity, Mean Humidity, Min Humidity, Max Sea Level PressureIn, Mean Sea Level PressureIn, Min Sea Level PressureIn, Max VisibilityMiles, Mean VisibilityMiles, Min VisibilityMiles, Max Wind SpeedMPH, Mean Wind SpeedMPH, Max Gust SpeedMPH,PrecipitationIn, CloudCover, Events, WindDirDegrees
2012-11-1,44,40,37,41,39,36,100,91,76,29.03,28.87,28.77,6,6,4,12,4,,0.00,4,Rain,237
2012-11-2,48,44,39,39,38,36,93,85,66,29.33,29.19,29.03,6,6,6,12,8,,0.00,1,,222
2012-11-3,46,39,32,41,36,32,100,89,62,29.44,29.36,29.27,6,6,4,10,5,,0.00,4,Rain,217
2012-11-4,42,36,30,39,35,30,100,95,87,29.47,29.36,29.27,6,4,1,8,3,24,0.00,5,Fog-Rain,36
2012-11-5,48,39,30,39,35,30,100,89,62,30.01,29.75,29.47,6,4,1,13,5,,0.00,3,,331
2012-11-6,48,38,28,46,40,28,100,91,81,30.18,30.10,30.01,6,6,1,10,4,,0.00,5,Rain,273
2012-11-7,50,44,39,45,41,37,93,84,71,30.24,30.18,30.09,6,6,6,9,6,21,0.00,4,,254
2012-11-8,51,48,46,45,42,39,93,80,66,30.09,30.04,29.98,6,6,6,12,6,,0.00,4,,257
2012-11-9,51,48,44,45,42,39,93,82,71,29.98,29.72,29.50,6,6,6,15,8,,0.00,6,Rain,206
2012-11-10,50,42,33,45,42,34,100,91,76,29.53,29.43,29.39,6,6,4,7,5,,0.00,4,Rain,225
2012-11-11,50,41,32,41,37,32,100,86,71,30.06,29.86,29.56,6,6,5,9,3,,0.00,2,,268
2012-11-12,51,46,41,50,46,39,100,93,87,30.12,30.06,30.01,6,6,3,9,6,,0.00,5,Rain,200
2012-11-13,55,52,48,50,48,46,100,85,72,30.30,30.22,30.15,6,6,6,12,7,,0.00,5,,203
2012-11-14,55,46,35,50,46,36,100,92,82,30.30,30.28,30.27,6,5,0,8,4,,0.00,6,Fog-Rain,165
2012-11-15,42,38,35,41,38,36,100,97,81,30.27,30.18,30.06,4,2,0,6,2,,0.00,7,Fog,182
2012-11-16,46,44,41,46,41,36,100,92,81,30.06,29.91,29.71,6,3,0,9,4,,0.00,7,Fog-Rain,158
2012-11-17,48,42,35,46,42,34,100,91,76,29.86,29.74,29.62,6,5,0,10,5,,0.00,5,Fog-Rain,296
2012-11-18,46,37,28,37,34,28,100,89,66,29.95,29.92,29.86,6,6,4,10,4,,0.00,1,,180
2012-11-19,51,45,39,50,43,36,100,87,76,29.86,29.72,29.65,6,6,3,17,11,29,0.00,5,Rain,178
2012-11-20,55,52,48,54,51,45,100,95,87,29.77,29.66,29.59,6,5,2,16,10,22,0.00,6,Rain,186
2012-11-21,48,44,39,46,42,37,100,95,87,29.89,29.74,29.62,6,5,2,13,5,,0.00,5,Rain,298
2012-11-22,53,47,41,48,46,39,100,88,77,29.86,29.68,29.50,6,6,2,24,12,46,0.00,5,Rain,191
2012-11-23,50,44,35,43,40,36,100,90,76,29.98,29.81,29.62,6,6,6,10,7,,0.00,1,,215
2012-11-24,46,38,30,46,39,30,100,99,93,29.98,29.79,29.33,6,3,0,14,5,,0.00,5,Fog-Rain,99
2012-11-25,48,45,42,46,43,36,100,89,71,29.65,29.50,29.24,6,6,2,17,11,25,0.00,4,Rain,233
2012-11-26,48,42,35,46,42,36,100,97,87,29.53,29.46,29.42,6,4,0,13,6,,0.00,5,Fog-Rain,307
2012-11-27,44,42,41,43,40,37,100,90,81,29.92,29.73,29.53,6,6,2,18,13,,0.00,6,Rain,345
2012-11-28,42,37,32,39,35,28,93,85,76,30.01,29.98,29.92,6,6,6,14,12,,0.00,5,,324
2012-11-29,41,34,26,32,30,27,100,87,70,30.01,29.93,29.86,6,6,6,10,7,,0.00,3,,310
2012-11-30,41,34,26,37,31,27,100,96,87,29.95,29.87,29.83,6,6,4,7,2,,0.00,4,Fog,322